sensor_id;sensor_type;location;lat;lon;timestamp;pressure;altitude;pressure_sealevel;temperature;humidity
11345;BME280;5727;42.600;23.028;2023-07-13T00:02:22;93998.63;;;22.56;100.00
11345;BME280;5727;42.600;23.028;2023-07-13T00:04:49;94003.63;;;22.50;100.00
11345;BME280;5727;42.600;23.028;2023-07-13T00:07:17;93999.44;;;22.46;100.00
11345;BME280;5727;42.600;23.028;2023-07-13T00:09:45;93994.91;;;22.43;100.00
11345;BME280;5727;42.600;23.028;2023-07-13T00:12:24;93994.19;;;22.39;100.00
11345;BME280;5727;42.600;23.028;2023-07-13T00:14:51;93993.41;;;22.38;100.00
11345;BME280;5727;42.600;23.028;2023-07-13T00:17:18;93989.25;;;22.37;100.00
11345;BME280;5727;42.600;23.028;2023-07-13T00:19:44;93989.63;;;22.32;100.00
11345;BME280;5727;42.600;23.028;2023-07-13T00:22:12;93989.03;;;22.11;100.00
11345;BME280;5727;42.600;23.028;2023-07-13T00:24:38;93993.56;;;22.14;100.00
11345;BME280;5727;42.600;23.028;2023-07-13T00:27:07;93988.25;;;22.14;100.00
11345;BME280;5727;42.600;23.028;2023-07-13T00:29:36;93986.38;;;22.11;100.00
11345;BME280;5727;42.600;23.028;2023-07-13T00:32:04;93981.44;;;22.06;100.00
11345;BME280;5727;42.600;23.028;2023-07-13T00:34:31;93985.28;;;22.01;100.00
11345;BME280;5727;42.600;23.028;2023-07-13T00:36:58;93981.47;;;21.99;100.00
11345;BME280;5727;42.600;23.028;2023-07-13T00:39:25;93981.47;;;21.99;100.00
11345;BME280;5727;42.600;23.028;2023-07-13T00:41:52;93983.81;;;21.93;100.00
11345;BME280;5727;42.600;23.028;2023-07-13T00:44:19;93988.38;;;21.89;100.00
11345;BME280;5727;42.600;23.028;2023-07-13T00:46:50;93981.19;;;21.75;100.00
11345;BME280;5727;42.600;23.028;2023-07-13T00:49:19;93988.44;;;21.71;100.00
11345;BME280;5727;42.600;23.028;2023-07-13T00:51:49;93977.00;;;21.71;100.00
11345;BME280;5727;42.600;23.028;2023-07-13T00:54:20;93982.38;;;21.67;100.00
11345;BME280;5727;42.600;23.028;2023-07-13T00:56:50;93976.28;;;21.63;100.00
11345;BME280;5727;42.600;23.028;2023-07-13T00:59:18;93983.91;;;21.61;100.00
11345;BME280;5727;42.600;23.028;2023-07-13T01:01:47;93985.44;;;21.62;100.00
11345;BME280;5727;42.600;23.028;2023-07-13T01:04:15;93983.16;;;21.57;100.00
11345;BME280;5727;42.600;23.028;2023-07-13T01:06:42;93974.44;;;21.53;100.00
11345;BME280;5727;42.600;23.028;2023-07-13T01:09:11;93970.22;;;21.56;100.00
11345;BME280;5727;42.600;23.028;2023-07-13T01:11:38;93985.50;;;21.55;100.00
11345;BME280;5727;42.600;23.028;2023-07-13T01:14:06;93979.41;;;21.51;100.00
11345;BME280;5727;42.600;23.028;2023-07-13T01:16:34;93984.00;;;21.47;100.00
11345;BME280;5727;42.600;23.028;2023-07-13T01:19:03;93982.09;;;21.44;100.00
11345;BME280;5727;42.600;23.028;2023-07-13T01:21:35;93978.66;;;21.40;100.00
11345;BME280;5727;42.600;23.028;2023-07-13T01:24:08;93980.97;;;21.35;100.00
11345;BME280;5727;42.600;23.028;2023-07-13T01:26:35;93973.00;;;21.31;100.00
11345;BME280;5727;42.600;23.028;2023-07-13T01:29:01;93975.69;;;21.24;100.00
11345;BME280;5727;42.600;23.028;2023-07-13T01:31:28;93977.97;;;21.22;100.00
11345;BME280;5727;42.600;23.028;2023-07-13T01:33:55;93968.09;;;21.23;100.00
11345;BME280;5727;42.600;23.028;2023-07-13T01:36:22;93962.75;;;21.23;100.00
11345;BME280;5727;42.600;23.028;2023-07-13T01:38:50;93966.22;;;21.02;100.00
11345;BME280;5727;42.600;23.028;2023-07-13T01:41:17;93963.94;;;21.01;100.00
11345;BME280;5727;42.600;23.028;2023-07-13T01:43:44;93959.38;;;20.98;100.00
11345;BME280;5727;42.600;23.028;2023-07-13T01:46:11;93953.66;;;20.99;100.00
11345;BME280;5727;42.600;23.028;2023-07-13T01:48:37;93957.50;;;21.02;100.00
11345;BME280;5727;42.600;23.028;2023-07-13T01:51:04;93965.47;;;21.02;100.00
11345;BME280;5727;42.600;23.028;2023-07-13T01:53:31;93957.47;;;21.05;100.00
11345;BME280;5727;42.600;23.028;2023-07-13T01:55:59;93968.13;;;21.05;100.00
11345;BME280;5727;42.600;23.028;2023-07-13T01:58:25;93965.47;;;21.05;100.00
11345;BME280;5727;42.600;23.028;2023-07-13T02:00:52;93964.72;;;21.01;100.00
11345;BME280;5727;42.600;23.028;2023-07-13T02:03:19;93964.72;;;21.01;100.00
11345;BME280;5727;42.600;23.028;2023-07-13T02:05:46;93961.28;;;21.01;100.00
11345;BME280;5727;42.600;23.028;2023-07-13T02:08:13;93964.31;;;20.95;100.00
11345;BME280;5727;42.600;23.028;2023-07-13T02:10:39;93968.13;;;20.91;100.00
11345;BME280;5727;42.600;23.028;2023-07-13T02:13:07;93958.63;;;20.83;100.00
11345;BME280;5727;42.600;23.028;2023-07-13T02:15:38;93962.84;;;20.80;100.00
11345;BME280;5727;42.600;23.028;2023-07-13T02:18:05;93966.59;;;20.83;100.00
11345;BME280;5727;42.600;23.028;2023-07-13T02:20:31;93973.84;;;20.86;100.00
11345;BME280;5727;42.600;23.028;2023-07-13T02:22:58;93967.75;;;20.82;100.00
11345;BME280;5727;42.600;23.028;2023-07-13T02:25:25;93969.28;;;20.83;100.00
11345;BME280;5727;42.600;23.028;2023-07-13T02:27:52;93975.38;;;20.80;100.00
11345;BME280;5727;42.600;23.028;2023-07-13T02:30:20;93972.31;;;20.81;100.00
11345;BME280;5727;42.600;23.028;2023-07-13T02:32:50;93969.28;;;20.83;100.00
11345;BME280;5727;42.600;23.028;2023-07-13T02:35:16;93962.84;;;20.80;100.00
11345;BME280;5727;42.600;23.028;2023-07-13T02:37:43;93973.09;;;20.78;100.00
11345;BME280;5727;42.600;23.028;2023-07-13T02:40:10;93965.13;;;20.64;100.00
11345;BME280;5727;42.600;23.028;2023-07-13T02:42:37;93971.97;;;20.58;100.00
11345;BME280;5727;42.600;23.028;2023-07-13T02:45:05;93975.78;;;20.57;100.00
11345;BME280;5727;42.600;23.028;2023-07-13T02:47:33;93980.72;;;20.59;100.00
11345;BME280;5727;42.600;23.028;2023-07-13T02:50:00;93976.91;;;20.56;100.00
11345;BME280;5727;42.600;23.028;2023-07-13T02:52:27;93983.38;;;20.48;100.00
11345;BME280;5727;42.600;23.028;2023-07-13T02:54:54;93984.13;;;20.31;100.00
11345;BME280;5727;42.600;23.028;2023-07-13T02:57:20;93989.78;;;20.16;100.00
11345;BME280;5727;42.600;23.028;2023-07-13T02:59:47;93981.03;;;20.12;100.00
11345;BME280;5727;42.600;23.028;2023-07-13T03:02:15;93983.31;;;19.99;100.00
11345;BME280;5727;42.600;23.028;2023-07-13T03:04:44;93987.09;;;19.94;100.00
11345;BME280;5727;42.600;23.028;2023-07-13T03:07:11;93989.34;;;19.89;100.00
11345;BME280;5727;42.600;23.028;2023-07-13T03:09:38;93988.59;;;19.85;100.00
11345;BME280;5727;42.600;23.028;2023-07-13T03:12:05;93988.97;;;19.87;100.00
11345;BME280;5727;42.600;23.028;2023-07-13T03:14:32;93988.97;;;19.90;100.00
11345;BME280;5727;42.600;23.028;2023-07-13T03:16:59;93990.91;;;19.93;100.00
11345;BME280;5727;42.600;23.028;2023-07-13T03:19:26;93983.25;;;19.81;100.00
11345;BME280;5727;42.600;23.028;2023-07-13T03:21:54;93994.66;;;19.85;100.00
11345;BME280;5727;42.600;23.028;2023-07-13T03:24:20;93989.34;;;19.78;100.00
11345;BME280;5727;42.600;23.028;2023-07-13T03:26:51;93993.50;;;19.72;100.00
11345;BME280;5727;42.600;23.028;2023-07-13T03:29:18;93996.47;;;19.53;100.00
11345;BME280;5727;42.600;23.028;2023-07-13T03:31:44;93996.00;;;19.34;100.00
11345;BME280;5727;42.600;23.028;2023-07-13T03:34:11;93993.75;;;19.39;100.00
11345;BME280;5727;42.600;23.028;2023-07-13T03:36:38;93994.50;;;19.40;100.00
11345;BME280;5727;42.600;23.028;2023-07-13T03:39:06;93989.22;;;19.50;100.00
11345;BME280;5727;42.600;23.028;2023-07-13T03:41:33;93995.28;;;19.40;100.00
11345;BME280;5727;42.600;23.028;2023-07-13T03:44:00;93992.28;;;19.56;100.00
11345;BME280;5727;42.600;23.028;2023-07-13T03:46:27;93996.09;;;19.62;100.00
11345;BME280;5727;42.600;23.028;2023-07-13T03:48:54;93999.94;;;19.68;100.00
11345;BME280;5727;42.600;23.028;2023-07-13T03:51:21;94005.69;;;19.80;100.00
11345;BME280;5727;42.600;23.028;2023-07-13T03:53:48;93998.47;;;19.88;100.00
11345;BME280;5727;42.600;23.028;2023-07-13T03:56:18;93994.31;;;19.97;100.00
11345;BME280;5727;42.600;23.028;2023-07-13T03:58:46;93999.25;;;20.02;100.00
11345;BME280;5727;42.600;23.028;2023-07-13T04:01:15;94000.69;;;19.72;100.00
11345;BME280;5727;42.600;23.028;2023-07-13T04:03:42;94001.47;;;19.76;100.00
11345;BME280;5727;42.600;23.028;2023-07-13T04:06:14;93992.31;;;19.63;100.00
11345;BME280;5727;42.600;23.028;2023-07-13T04:08:47;93997.28;;;19.68;100.00
11345;BME280;5727;42.600;23.028;2023-07-13T04:11:16;93994.22;;;19.66;100.00
11345;BME280;5727;42.600;23.028;2023-07-13T04:13:43;94006.78;;;19.76;100.00
11345;BME280;5727;42.600;23.028;2023-07-13T04:16:10;93993.91;;;19.88;100.00
11345;BME280;5727;42.600;23.028;2023-07-13T04:18:37;93991.63;;;19.90;100.00
11345;BME280;5727;42.600;23.028;2023-07-13T04:21:03;93989.69;;;19.77;100.00
11345;BME280;5727;42.600;23.028;2023-07-13T04:23:30;93997.72;;;19.84;100.00
11345;BME280;5727;42.600;23.028;2023-07-13T04:25:57;93994.28;;;19.76;100.00
11345;BME280;5727;42.600;23.028;2023-07-13T04:28:26;93993.91;;;19.85;100.00
11345;BME280;5727;42.600;23.028;2023-07-13T04:30:53;93985.19;;;19.88;100.00
11345;BME280;5727;42.600;23.028;2023-07-13T04:33:20;93994.31;;;20.08;100.00
11345;BME280;5727;42.600;23.028;2023-07-13T04:35:47;93999.25;;;20.09;100.00
11345;BME280;5727;42.600;23.028;2023-07-13T04:38:15;94006.13;;;20.11;100.00
11345;BME280;5727;42.600;23.028;2023-07-13T04:40:42;94004.59;;;20.06;100.00
11345;BME280;5727;42.600;23.028;2023-07-13T04:43:11;94008.34;;;19.94;100.00
11345;BME280;5727;42.600;23.028;2023-07-13T04:45:39;94009.13;;;19.88;100.00
11345;BME280;5727;42.600;23.028;2023-07-13T04:48:05;94018.91;;;19.70;100.00
11345;BME280;5727;42.600;23.028;2023-07-13T04:50:32;94027.69;;;19.77;100.00
11345;BME280;5727;42.600;23.028;2023-07-13T04:52:59;94032.59;;;19.68;100.00
11345;BME280;5727;42.600;23.028;2023-07-13T04:55:26;94035.13;;;19.40;100.00
11345;BME280;5727;42.600;23.028;2023-07-13T04:57:56;94039.19;;;19.24;100.00
11345;BME280;5727;42.600;23.028;2023-07-13T05:00:24;94032.38;;;19.30;100.00
11345;BME280;5727;42.600;23.028;2023-07-13T05:02:54;94029.03;;;19.36;100.00
11345;BME280;5727;42.600;23.028;2023-07-13T05:05:21;94043.13;;;19.47;100.00
11345;BME280;5727;42.600;23.028;2023-07-13T05:07:47;94035.19;;;19.54;100.00
11345;BME280;5727;42.600;23.028;2023-07-13T05:10:14;94031.81;;;19.68;100.00
11345;BME280;5727;42.600;23.028;2023-07-13T05:12:41;94031.13;;;19.81;100.00
11345;BME280;5727;42.600;23.028;2023-07-13T05:15:08;94034.22;;;19.94;100.00
11345;BME280;5727;42.600;23.028;2023-07-13T05:17:35;94036.50;;;19.95;100.00
11345;BME280;5727;42.600;23.028;2023-07-13T05:20:06;94031.94;;;20.03;100.00
11345;BME280;5727;42.600;23.028;2023-07-13T05:22:33;94034.25;;;20.15;100.00
11345;BME280;5727;42.600;23.028;2023-07-13T05:25:00;94043.44;;;20.28;100.00
11345;BME280;5727;42.600;23.028;2023-07-13T05:27:27;94038.50;;;20.34;100.00
11345;BME280;5727;42.600;23.028;2023-07-13T05:29:53;94037.75;;;20.47;100.00
11345;BME280;5727;42.600;23.028;2023-07-13T05:32:20;94040.44;;;20.65;100.00
11345;BME280;5727;42.600;23.028;2023-07-13T05:34:47;94048.78;;;20.63;100.00
11345;BME280;5727;42.600;23.028;2023-07-13T05:37:15;94048.81;;;20.67;100.00
11345;BME280;5727;42.600;23.028;2023-07-13T05:39:42;94056.38;;;20.82;100.00
11345;BME280;5727;42.600;23.028;2023-07-13T05:42:08;94055.66;;;20.82;100.00
11345;BME280;5727;42.600;23.028;2023-07-13T05:44:35;94057.16;;;20.97;100.00
11345;BME280;5727;42.600;23.028;2023-07-13T05:47:02;94062.50;;;21.15;100.00
11345;BME280;5727;42.600;23.028;2023-07-13T05:49:29;94056.38;;;21.25;100.00
11345;BME280;5727;42.600;23.028;2023-07-13T05:51:56;94055.25;;;21.26;100.00
11345;BME280;5727;42.600;23.028;2023-07-13T05:54:25;94037.72;;;21.25;100.00
11345;BME280;5727;42.600;23.028;2023-07-13T05:56:51;94028.56;;;21.33;100.00
11345;BME280;5727;42.600;23.028;2023-07-13T05:59:18;94019.78;;;21.46;100.00
11345;BME280;5727;42.600;23.028;2023-07-13T06:01:45;94022.38;;;21.67;100.00
11345;BME280;5727;42.600;23.028;2023-07-13T06:04:12;94024.63;;;21.83;100.00
11345;BME280;5727;42.600;23.028;2023-07-13T06:06:38;94034.03;;;22.02;100.00
11345;BME280;5727;42.600;23.028;2023-07-13T06:09:05;94030.91;;;22.24;100.00
11345;BME280;5727;42.600;23.028;2023-07-13T06:11:33;94030.00;;;22.45;100.00
11345;BME280;5727;42.600;23.028;2023-07-13T06:14:00;94031.78;;;22.65;100.00
11345;BME280;5727;42.600;23.028;2023-07-13T06:16:27;94025.94;;;22.81;100.00
11345;BME280;5727;42.600;23.028;2023-07-13T06:18:54;94035.69;;;22.98;100.00
11345;BME280;5727;42.600;23.028;2023-07-13T06:21:22;94039.03;;;23.09;100.00
11345;BME280;5727;42.600;23.028;2023-07-13T06:23:51;94040.97;;;23.09;100.00
11345;BME280;5727;42.600;23.028;2023-07-13T06:26:19;94037.53;;;23.08;100.00
11345;BME280;5727;42.600;23.028;2023-07-13T06:28:47;94030.94;;;23.20;100.00
11345;BME280;5727;42.600;23.028;2023-07-13T06:31:15;94037.78;;;23.21;100.00
11345;BME280;5727;42.600;23.028;2023-07-13T06:33:43;94040.84;;;23.19;100.00
11345;BME280;5727;42.600;23.028;2023-07-13T06:36:10;94039.31;;;23.22;100.00
11345;BME280;5727;42.600;23.028;2023-07-13T06:38:37;94044.22;;;23.30;100.00
11345;BME280;5727;42.600;23.028;2023-07-13T06:41:04;94040.34;;;23.35;100.00
11345;BME280;5727;42.600;23.028;2023-07-13T06:43:31;94040.63;;;23.47;100.00
11345;BME280;5727;42.600;23.028;2023-07-13T06:45:59;94034.47;;;23.50;100.00
11345;BME280;5727;42.600;23.028;2023-07-13T06:48:26;94033.28;;;23.51;100.00
11345;BME280;5727;42.600;23.028;2023-07-13T06:50:53;94022.06;;;23.63;100.00
11345;BME280;5727;42.600;23.028;2023-07-13T06:53:20;94028.41;;;23.77;100.00
11345;BME280;5727;42.600;23.028;2023-07-13T06:55:47;94027.53;;;23.87;100.00
11345;BME280;5727;42.600;23.028;2023-07-13T06:58:15;94024.97;;;24.10;100.00
11345;BME280;5727;42.600;23.028;2023-07-13T07:00:43;94023.63;;;24.25;100.00
11345;BME280;5727;42.600;23.028;2023-07-13T07:03:11;94027.38;;;24.31;100.00
11345;BME280;5727;42.600;23.028;2023-07-13T07:05:38;94028.72;;;24.42;100.00
11345;BME280;5727;42.600;23.028;2023-07-13T07:08:05;94021.59;;;24.59;100.00
11345;BME280;5727;42.600;23.028;2023-07-13T07:10:32;94030.63;;;24.72;100.00
11345;BME280;5727;42.600;23.028;2023-07-13T07:13:00;94019.78;;;24.79;100.00
11345;BME280;5727;42.600;23.028;2023-07-13T07:15:27;94024.56;;;24.91;100.00
11345;BME280;5727;42.600;23.028;2023-07-13T07:17:54;94026.19;;;25.08;100.00
11345;BME280;5727;42.600;23.028;2023-07-13T07:20:23;94032.47;;;25.21;100.00
11345;BME280;5727;42.600;23.028;2023-07-13T07:22:50;94015.97;;;25.23;100.00
11345;BME280;5727;42.600;23.028;2023-07-13T07:25:16;94018.81;;;25.35;100.00
11345;BME280;5727;42.600;23.028;2023-07-13T07:27:43;94022.91;;;25.44;100.00
11345;BME280;5727;42.600;23.028;2023-07-13T07:30:11;94018.22;;;25.48;100.00
11345;BME280;5727;42.600;23.028;2023-07-13T07:32:37;94018.72;;;25.62;100.00
11345;BME280;5727;42.600;23.028;2023-07-13T07:35:05;94013.75;;;25.80;100.00
11345;BME280;5727;42.600;23.028;2023-07-13T07:37:33;94009.34;;;25.90;100.00
11345;BME280;5727;42.600;23.028;2023-07-13T07:40:00;94001.41;;;26.02;100.00
11345;BME280;5727;42.600;23.028;2023-07-13T07:42:27;94000.41;;;26.16;100.00
11345;BME280;5727;42.600;23.028;2023-07-13T07:44:54;94000.06;;;26.30;100.00
11345;BME280;5727;42.600;23.028;2023-07-13T07:47:21;93992.38;;;26.48;100.00
11345;BME280;5727;42.600;23.028;2023-07-13T07:49:49;93992.19;;;26.55;100.00
11345;BME280;5727;42.600;23.028;2023-07-13T07:52:16;93997.19;;;26.73;100.00
11345;BME280;5727;42.600;23.028;2023-07-13T07:54:44;93998.34;;;26.88;100.00
11345;BME280;5727;42.600;23.028;2023-07-13T07:57:11;93997.34;;;26.98;100.00
11345;BME280;5727;42.600;23.028;2023-07-13T07:59:38;93990.44;;;27.13;100.00
11345;BME280;5727;42.600;23.028;2023-07-13T08:02:05;93991.16;;;27.30;100.00
11345;BME280;5727;42.600;23.028;2023-07-13T08:04:32;93983.38;;;27.48;100.00
11345;BME280;5727;42.600;23.028;2023-07-13T08:06:59;93979.22;;;27.59;92.80
11345;BME280;5727;42.600;23.028;2023-07-13T08:09:28;93981.44;;;27.77;92.56
11345;BME280;5727;42.600;23.028;2023-07-13T08:11:56;93966.91;;;27.87;90.69
11345;BME280;5727;42.600;23.028;2023-07-13T08:14:22;93963.31;;;28.06;89.57
11345;BME280;5727;42.600;23.028;2023-07-13T08:16:49;93965.88;;;28.22;86.84
11345;BME280;5727;42.600;23.028;2023-07-13T08:19:16;93960.84;;;28.37;73.50
11345;BME280;5727;42.600;23.028;2023-07-13T08:21:43;93961.38;;;28.57;74.67
11345;BME280;5727;42.600;23.028;2023-07-13T08:24:09;93958.56;;;28.73;75.18
11345;BME280;5727;42.600;23.028;2023-07-13T08:26:36;93954.00;;;28.82;71.38
11345;BME280;5727;42.600;23.028;2023-07-13T08:29:04;93945.34;;;28.87;72.21
11345;BME280;5727;42.600;23.028;2023-07-13T08:31:31;93955.03;;;28.98;74.90
11345;BME280;5727;42.600;23.028;2023-07-13T08:33:58;93949.19;;;29.12;73.21
11345;BME280;5727;42.600;23.028;2023-07-13T08:36:25;93949.16;;;29.24;69.95
11345;BME280;5727;42.600;23.028;2023-07-13T08:38:53;93942.63;;;29.34;68.96
11345;BME280;5727;42.600;23.028;2023-07-13T08:41:20;93947.41;;;29.52;71.97
11345;BME280;5727;42.600;23.028;2023-07-13T08:43:50;93937.41;;;29.61;67.77
11345;BME280;5727;42.600;23.028;2023-07-13T08:46:24;93947.47;;;29.61;60.92
11345;BME280;5727;42.600;23.028;2023-07-13T08:48:53;93939.22;;;29.64;61.79
11345;BME280;5727;42.600;23.028;2023-07-13T08:51:35;93936.53;;;29.64;65.10
11345;BME280;5727;42.600;23.028;2023-07-13T08:54:12;93943.22;;;29.72;59.97
11345;BME280;5727;42.600;23.028;2023-07-13T08:56:45;93948.94;;;29.74;58.95
11345;BME280;5727;42.600;23.028;2023-07-13T08:59:15;93966.22;;;29.77;59.86
11345;BME280;5727;42.600;23.028;2023-07-13T09:02:02;93957.28;;;29.89;63.46
11345;BME280;5727;42.600;23.028;2023-07-13T09:04:34;93964.50;;;29.92;64.01
11345;BME280;5727;42.600;23.028;2023-07-13T09:07:12;93963.00;;;29.91;60.52
11345;BME280;5727;42.600;23.028;2023-07-13T09:09:50;93968.56;;;29.97;59.98
11345;BME280;5727;42.600;23.028;2023-07-13T09:12:24;93983.50;;;30.10;59.03
11345;BME280;5727;42.600;23.028;2023-07-13T09:14:56;93970.31;;;30.12;55.15
11345;BME280;5727;42.600;23.028;2023-07-13T09:17:27;93975.75;;;30.21;55.48
11345;BME280;5727;42.600;23.028;2023-07-13T09:19:59;93968.16;;;30.29;55.67
11345;BME280;5727;42.600;23.028;2023-07-13T09:22:32;93976.28;;;30.38;56.08
11345;BME280;5727;42.600;23.028;2023-07-13T09:25:04;93978.53;;;30.39;55.66
11345;BME280;5727;42.600;23.028;2023-07-13T09:27:36;93975.72;;;30.43;54.90
11345;BME280;5727;42.600;23.028;2023-07-13T09:30:20;93986.84;;;30.45;52.39
11345;BME280;5727;42.600;23.028;2023-07-13T09:32:53;93991.97;;;30.52;52.80
11345;BME280;5727;42.600;23.028;2023-07-13T09:35:22;93987.81;;;30.60;54.40
11345;BME280;5727;42.600;23.028;2023-07-13T09:37:56;93980.94;;;30.77;55.89
11345;BME280;5727;42.600;23.028;2023-07-13T09:40:27;93979.91;;;30.84;54.38
11345;BME280;5727;42.600;23.028;2023-07-13T09:42:54;93979.94;;;30.93;52.45
11345;BME280;5727;42.600;23.028;2023-07-13T09:45:27;93975.72;;;31.01;54.28
11345;BME280;5727;42.600;23.028;2023-07-13T09:48:04;93970.03;;;31.08;54.98
11345;BME280;5727;42.600;23.028;2023-07-13T09:50:31;93964.34;;;31.06;49.17
11345;BME280;5727;42.600;23.028;2023-07-13T09:52:58;93964.34;;;31.15;50.95
11345;BME280;5727;42.600;23.028;2023-07-13T09:55:29;93958.91;;;31.24;49.67
11345;BME280;5727;42.600;23.028;2023-07-13T09:57:57;93965.25;;;31.21;46.27
11345;BME280;5727;42.600;23.028;2023-07-13T10:00:26;93949.16;;;31.26;48.07
11345;BME280;5727;42.600;23.028;2023-07-13T10:03:03;93952.63;;;31.27;48.19
11345;BME280;5727;42.600;23.028;2023-07-13T10:05:41;93946.88;;;31.34;48.74
11345;BME280;5727;42.600;23.028;2023-07-13T10:08:23;93931.28;;;31.38;48.47
11345;BME280;5727;42.600;23.028;2023-07-13T10:10:57;93923.44;;;31.40;48.91
11345;BME280;5727;42.600;23.028;2023-07-13T10:13:31;93933.22;;;31.46;44.55
11345;BME280;5727;42.600;23.028;2023-07-13T10:16:00;93925.41;;;31.48;45.90
11345;BME280;5727;42.600;23.028;2023-07-13T10:18:29;93927.06;;;31.46;42.29
11345;BME280;5727;42.600;23.028;2023-07-13T10:21:08;93932.75;;;31.57;42.72
11345;BME280;5727;42.600;23.028;2023-07-13T10:23:37;93929.00;;;31.64;41.80
11345;BME280;5727;42.600;23.028;2023-07-13T10:26:05;93928.38;;;31.69;41.03
11345;BME280;5727;42.600;23.028;2023-07-13T10:28:37;93921.56;;;31.82;42.30
11345;BME280;5727;42.600;23.028;2023-07-13T10:31:08;93922.16;;;31.86;40.65
11345;BME280;5727;42.600;23.028;2023-07-13T10:33:42;93918.56;;;31.98;42.22
11345;BME280;5727;42.600;23.028;2023-07-13T10:36:14;93913.09;;;32.07;43.34
11345;BME280;5727;42.600;23.028;2023-07-13T10:38:45;93918.22;;;32.05;40.84
11345;BME280;5727;42.600;23.028;2023-07-13T10:41:17;93912.03;;;32.05;39.77
11345;BME280;5727;42.600;23.028;2023-07-13T10:43:47;93905.84;;;32.13;41.97
11345;BME280;5727;42.600;23.028;2023-07-13T10:46:19;93913.97;;;32.13;40.68
11345;BME280;5727;42.600;23.028;2023-07-13T10:48:52;93906.31;;;32.12;41.34
11345;BME280;5727;42.600;23.028;2023-07-13T10:51:21;93908.69;;;32.19;42.63
11345;BME280;5727;42.600;23.028;2023-07-13T10:54:15;93906.44;;;32.17;41.21
11345;BME280;5727;42.600;23.028;2023-07-13T10:56:43;93907.63;;;32.16;40.12
11345;BME280;5727;42.600;23.028;2023-07-13T10:59:14;93889.53;;;32.22;40.82
11345;BME280;5727;42.600;23.028;2023-07-13T11:01:51;93893.34;;;32.39;40.04
11345;BME280;5727;42.600;23.028;2023-07-13T11:04:24;93889.88;;;32.48;39.92
11345;BME280;5727;42.600;23.028;2023-07-13T11:06:56;93888.19;;;32.51;39.83
11345;BME280;5727;42.600;23.028;2023-07-13T11:09:38;93873.38;;;32.61;41.23
11345;BME280;5727;42.600;23.028;2023-07-13T11:12:25;93868.47;;;32.74;40.26
11345;BME280;5727;42.600;23.028;2023-07-13T11:15:10;93863.59;;;32.78;39.48
11345;BME280;5727;42.600;23.028;2023-07-13T11:17:48;93862.53;;;32.84;39.33
11345;BME280;5727;42.600;23.028;2023-07-13T11:20:31;93854.44;;;32.75;38.01
11345;BME280;5727;42.600;23.028;2023-07-13T11:23:27;93866.59;;;32.80;37.93
11345;BME280;5727;42.600;23.028;2023-07-13T11:25:55;93844.56;;;32.87;36.10
11345;BME280;5727;42.600;23.028;2023-07-13T11:28:24;93843.91;;;32.92;37.03
11345;BME280;5727;42.600;23.028;2023-07-13T11:31:12;93848.19;;;33.07;36.15
11345;BME280;5727;42.600;23.028;2023-07-13T11:34:06;93862.44;;;33.17;32.41
11345;BME280;5727;42.600;23.028;2023-07-13T11:36:39;93852.53;;;33.43;30.42
11345;BME280;5727;42.600;23.028;2023-07-13T11:39:16;93847.00;;;33.81;28.74
11345;BME280;5727;42.600;23.028;2023-07-13T11:41:49;93853.69;;;34.64;29.47
11345;BME280;5727;42.600;23.028;2023-07-13T11:44:19;93847.09;;;35.88;28.06
11345;BME280;5727;42.600;23.028;2023-07-13T11:46:47;93850.63;;;36.67;27.78
11345;BME280;5727;42.600;23.028;2023-07-13T11:49:21;93850.88;;;37.39;27.58
11345;BME280;5727;42.600;23.028;2023-07-13T11:51:49;93844.47;;;38.31;26.12
11345;BME280;5727;42.600;23.028;2023-07-13T11:54:27;93844.63;;;40.40;23.42
11345;BME280;5727;42.600;23.028;2023-07-13T11:56:55;93842.13;;;41.65;21.32
11345;BME280;5727;42.600;23.028;2023-07-13T11:59:26;93832.03;;;41.12;22.10
11345;BME280;5727;42.600;23.028;2023-07-13T12:01:54;93831.94;;;40.56;21.52
11345;BME280;5727;42.600;23.028;2023-07-13T12:04:23;93831.50;;;39.98;23.08
11345;BME280;5727;42.600;23.028;2023-07-13T12:06:56;93832.88;;;41.07;21.83
11345;BME280;5727;42.600;23.028;2023-07-13T12:09:27;93828.13;;;43.18;19.81
11345;BME280;5727;42.600;23.028;2023-07-13T12:11:56;93826.88;;;42.66;20.53
11345;BME280;5727;42.600;23.028;2023-07-13T12:14:23;93831.84;;;41.97;21.27
11345;BME280;5727;42.600;23.028;2023-07-13T12:16:52;93819.47;;;41.72;21.74
11345;BME280;5727;42.600;23.028;2023-07-13T12:19:21;93812.75;;;42.31;21.40
11345;BME280;5727;42.600;23.028;2023-07-13T12:21:49;93807.97;;;42.18;21.25
11345;BME280;5727;42.600;23.028;2023-07-13T12:24:19;93800.78;;;42.15;21.08
11345;BME280;5727;42.600;23.028;2023-07-13T12:26:51;93799.88;;;41.94;19.98
11345;BME280;5727;42.600;23.028;2023-07-13T12:29:18;93799.72;;;41.86;20.86
11345;BME280;5727;42.600;23.028;2023-07-13T12:31:46;93792.09;;;42.37;20.64
11345;BME280;5727;42.600;23.028;2023-07-13T12:34:15;93801.22;;;41.19;20.79
11345;BME280;5727;42.600;23.028;2023-07-13T12:36:46;93792.22;;;41.37;19.73
11345;BME280;5727;42.600;23.028;2023-07-13T12:39:17;93784.47;;;42.83;19.23
11345;BME280;5727;42.600;23.028;2023-07-13T12:41:45;93783.06;;;43.02;19.29
11345;BME280;5727;42.600;23.028;2023-07-13T12:44:13;93778.44;;;42.97;19.62
11345;BME280;5727;42.600;23.028;2023-07-13T12:46:52;93777.66;;;43.10;20.08
11345;BME280;5727;42.600;23.028;2023-07-13T12:49:24;93774.25;;;43.04;18.67
11345;BME280;5727;42.600;23.028;2023-07-13T12:51:56;93771.53;;;42.91;19.40
11345;BME280;5727;42.600;23.028;2023-07-13T12:54:24;93769.31;;;41.79;20.44
11345;BME280;5727;42.600;23.028;2023-07-13T12:56:53;93770.59;;;41.65;20.77
11345;BME280;5727;42.600;23.028;2023-07-13T12:59:22;93761.50;;;42.15;20.17
11345;BME280;5727;42.600;23.028;2023-07-13T13:01:53;93759.47;;;42.94;20.08
11345;BME280;5727;42.600;23.028;2023-07-13T13:04:20;93762.84;;;42.73;19.81